^^
Meteo Knjazevac Station Historical Data
Daily Summary for July 21, 2021 Units:  Metric    English   Both
Daily Weekly Monthly Yearly Custom
  High: Low: Average:
Temperature: 12.9 °C 10.8 °C 11.7 °C
Dew Point: 10.9 °C 9.2 °C 9.9 °C
Humidity: 95% 85% 89%
Wind Speed: 11.3km/h 0km/h 3.5km/h
Wind Gust: 17.7km/h - -
Wind- - SW
Pressure: 1024.3 hPa 1022.6 hPa -
Precipitation: 0 mm    
Historical Graphs
 
 
Tabular Data for July 21, 2021
Time Temperature Dew Point Pressure Wind Wind Speed Wind Gust Humidity Rainfall Rate (Hourly) solar Conditions
00:00 12.9 °C 10.9 °C 1022.9 hPa West 11.3 km/h 17.7 km/h 88% 0 mm 0 W/m2
00:10 12.7 °C 10.8 °C 1022.9 hPa West 3.2 km/h 16.1 km/h 88% 0 mm 0 W/m2
00:20 12.7 °C 10.8 °C 1022.9 hPa West 4.8 km/h 11.3 km/h 88% 0 mm 0 W/m2
00:30 12.6 °C 10.7 °C 1022.6 hPa West 4.8 km/h 11.3 km/h 88% 0 mm 0 W/m2
00:40 12.6 °C 10.7 °C 1022.9 hPa West 4.8 km/h 14.5 km/h 88% 0 mm 0 W/m2
00:50 12.5 °C 10.6 °C 1022.9 hPa West 9.7 km/h 14.5 km/h 88% 0 mm 0 W/m2
01:00 12.4 °C 10.4 °C 1022.9 hPa West 8 km/h 17.7 km/h 88% 0 mm 0 W/m2
01:10 12.4 °C 10.4 °C 1022.9 hPa WSW 4.8 km/h 16.1 km/h 88% 0 mm 0 W/m2
01:20 12.2 °C 10.3 °C 1022.9 hPa WSW 4.8 km/h 11.3 km/h 88% 0 mm 0 W/m2
01:30 12.2 °C 10.3 °C 1022.9 hPa SW 4.8 km/h 11.3 km/h 88% 0 mm 0 W/m2
01:40 12.2 °C 10.3 °C 1023.2 hPa SW 4.8 km/h 12.9 km/h 88% 0 mm 0 W/m2
01:50 12.2 °C 10.3 °C 1023.2 hPa SW 3.2 km/h 9.7 km/h 88% 0 mm 0 W/m2
02:00 12.2 °C 9.9 °C 1023.2 hPa WSW 3.2 km/h 11.3 km/h 86% 0 mm 0 W/m2
02:10 12.1 °C 9.8 °C 1023.2 hPa WSW 8 km/h 11.3 km/h 86% 0 mm 0 W/m2
02:20 12.1 °C 9.8 °C 1023.2 hPa WSW 8 km/h 11.3 km/h 86% 0 mm 0 W/m2
02:30 12 °C 9.7 °C 1023.2 hPa WSW 8 km/h 12.9 km/h 86% 0 mm 0 W/m2
02:40 12 °C 9.7 °C 1023.2 hPa WSW 8 km/h 12.9 km/h 86% 0 mm 0 W/m2
02:50 11.9 °C 9.4 °C 1023.2 hPa WSW 4.8 km/h 11.3 km/h 85% 0 mm 0 W/m2
03:00 11.8 °C 9.4 °C 1023.2 hPa SW 8 km/h 9.7 km/h 85% 0 mm 0 W/m2
03:10 11.7 °C 9.3 °C 1023.2 hPa WSW 3.2 km/h 9.7 km/h 85% 0 mm 0 W/m2
03:20 11.6 °C 9.2 °C 1023.2 hPa SW 3.2 km/h 8 km/h 85% 0 mm 0 W/m2
03:30 11.4 °C 9.2 °C 1023.2 hPa SW 3.2 km/h 6.4 km/h 86% 0 mm 0 W/m2
03:40 11.4 °C 9.5 °C 1023.2 hPa SW 3.2 km/h 8 km/h 88% 0 mm 0 W/m2
03:50 11.2 °C 9.6 °C 1023.2 hPa South 3.2 km/h 8 km/h 90% 0 mm 0 W/m2
04:00 11.2 °C 9.6 °C 1023.2 hPa ENE 1.6 km/h 8 km/h 90% 0 mm 0 W/m2
04:10 11.2 °C 9.6 °C 1023.2 hPa NE 1.6 km/h 6.4 km/h 90% 0 mm 0 W/m2
04:20 11.2 °C 9.6 °C 1023.2 hPa Calm   6.4 km/h 90% 0 mm 0 W/m2
04:30 11.2 °C 9.6 °C 1023.2 hPa Calm     90% 0 mm 0 W/m2
04:40 11.2 °C 9.8 °C 1023.2 hPa Calm   3.2 km/h 91% 0 mm 0 W/m2
04:50 11.2 °C 9.8 °C 1023.6 hPa Calm   3.2 km/h 91% 0 mm 0 W/m2
05:00 11.1 °C 9.7 °C 1023.6 hPa Calm   1.6 km/h 91% 0 mm 0 W/m2
05:10 11.1 °C 9.7 °C 1023.6 hPa Calm   1.6 km/h 91% 0 mm 0 W/m2
05:20 11 °C 9.9 °C 1023.6 hPa SE 1.6 km/h 3.2 km/h 93% 0 mm 0 W/m2
05:30 11 °C 9.9 °C 1023.6 hPa ESE 1.6 km/h 3.2 km/h 93% 0 mm 0 W/m2
05:40 11 °C 10.1 °C 1023.9 hPa Calm   3.2 km/h 94% 0 mm 0 W/m2
05:50 10.9 °C 9.9 °C 1023.9 hPa Calm     94% 0 mm 0 W/m2
06:00 10.8 °C 9.9 °C 1023.9 hPa Calm   1.6 km/h 94% 0 mm 0 W/m2
06:10 10.8 °C 9.9 °C 1024.3 hPa Calm   3.2 km/h 94% 0 mm 0 W/m2
06:20 10.8 °C 9.9 °C 1024.3 hPa Calm   3.2 km/h 94% 0 mm 3 W/m2
06:30 10.8 °C 10.1 °C 1024.3 hPa Calm   3.2 km/h 95% 0 mm 8 W/m2
Knjazevac, Serbia
Compliments of Weather Underground - 2 mb